Raton, NM

5:33 AM MST on January 31, 2015 (GMT -0700)
Near Historic Downtown | Change Station
CLOSE
Current Station
Personal Weather Station
Location: Raton, NM
Elevation: 6709 ft
Nearby Weather Stations
Active Advisory: Winter Weather Advisory

Elev 6709 ft 36.90 °N, 104.44 °W | Updated 5 minutes ago

Overcast
Overcast
28.6 °F
Feels Like 29 °F
N
0.0
Wind Variable Wind from South

Today
High -- | Low -- °F
--% Chance of Precip.
Yesterday
High -- | Low -- °F
Precip. -- in
7:01 AM 5:22 PM
Waxing Gibbous, 89% visible
Pressure 29.97 in
Visibility 0.8 miles
Clouds
Windchill 29 °F
Dew Point 29 °F
Humidity 100%
Rainfall 0.00 in
Snow Depth Not available.
UV Not available.
Pollen 1.30 out of 12
Air Quality Not available.
Flu Activity Not available.
METAR KRTN 311153Z AUTO 20006KT 3/4SM BR VV003 M02/M02 A2993 RMK AO2 SLP147 60000 70041 T10221022 11017 21022 56020

More Conditions Fewer Conditions

Pressure 29.97 in
Visibility 0.8 miles
Clouds
Windchill 29 °F
Dew Point 29 °F
Humidity 100%
Rainfall 0.00 in
Snow Depth Not available.
UV Not available.
Pollen 1.30 out of 12
Air Quality Not available.
Flu Activity Not available.
METAR KRTN 311153Z AUTO 20006KT 3/4SM BR VV003 M02/M02 A2993 RMK AO2 SLP147 60000 70041 T10221022 11017 21022 56020

More Conditions Fewer Conditions

Nowcast | as of 3:58 am MST on January 31, 2015

Light rain and snow will continue across eastern New Mexico through the overnight hours. New snow accumulations of up to one inch are possible through 6 am MST...mainly along the east slopes of the Sangre de Cristo Mountains and northeast Highlands. Elsewhere across the eastern plains...rain or a mix of rain and snow is expected. For the latest Road conditions visit N M roads dot com or dial 5 1 1.

×

10-Day Weather Forecast

Almanac

Astronomy

Jan. 31, 2015 Rise Set
Actual Time
Civil Twilight
Nautical Twilight
Astronomical Twilight
Moon
Length of Visible Light
Length of Day
Tomorrow will be .
, % of the Moon is Illuminated

Today's Extremes

State Highs State Lows

Community

WunderPhotos

Upload Photos

1,792,039 photos uploaded!

WunderBlogs® & News

Nearby

Air Quality

  Air Quality AQ Index Pollutant
Not available.

Snow Depth

Station Depth Elevation

Earthquake Activity

City Distance Mag. Time & Date
Minimum magnitude displayed is 2.5.

Coastal Water Temperatures

Place Temperature

Nearby Weather Stations